Time;durP1;ratioP1;P1;durP2;ratioP2;P2;SDS_P1;SDS_P2;PMS_P1;PMS_P2;Temp;Humidity;BMP_temperature;BMP_pressure;BME280_temperature;BME280_humidity;BME280_pressure;Samples;Min_cycle;Max_cycle;Signal;HPM_P1;HPM_P2
2019/04/23 04:05:12;;;;;;;8.9;5.6;;;;;;;16.24;44.45605;944.81;;;;
2019/04/23 04:07:37;;;;;;;10.2;5.6;;;;;;;16.3;44.24902;944.8186;;;;
2019/04/23 04:10:03;;;;;;;10.3;5.7;;;;;;;16.17;44.74609;944.7519;;;;
2019/04/23 04:12:28;;;;;;;9.4;5.7;;;;;;;16.32;44.34668;944.8209;;;;
2019/04/23 04:14:53;;;;;;;10.1;5.8;;;;;;;16.25;44.55371;944.8025;;;;
2019/04/23 04:17:18;;;;;;;9.6;5.6;;;;;;;16.34;44.0752;944.8176;;;;
2019/04/23 04:19:43;;;;;;;11.1;5.5;;;;;;;16.33;44.08691;944.9095;;;;
2019/04/23 04:22:08;;;;;;;9.7;5.7;;;;;;;16.37;44.01855;944.8594;;;;
2019/04/23 04:24:36;;;;;;;9.3;5.6;;;;;;;16.35;44.04102;944.7971;;;;
2019/04/23 04:27:01;;;;;;;9.2;5.9;;;;;;;16.33;44.2998;944.8378;;;;
2019/04/23 04:29:27;;;;;;;10;5.9;;;;;;;16.27;44.38965;944.7581;;;;
2019/04/23 04:31:52;;;;;;;13.9;5.6;;;;;;;16.3;44.41504;944.783;;;;
2019/04/23 04:34:18;;;;;;;10.7;5.9;;;;;;;16.31;44.35645;944.8338;;;;
2019/04/23 04:36:43;;;;;;;12.8;5.7;;;;;;;16.18;44.90234;944.7617;;;;
2019/04/23 04:39:08;;;;;;;9.3;6;;;;;;;16.14;44.80273;944.7664;;;;
2019/04/23 04:41:36;;;;;;;10;6.1;;;;;;;16.19;44.7373;944.8163;;;;
2019/04/23 04:44:01;;;;;;;10;6.1;;;;;;;16.24;44.5752;944.8192;;;;
2019/04/23 04:46:29;;;;;;;12.5;6.1;;;;;;;16.22;44.70508;944.7963;;;;
2019/04/23 04:48:55;;;;;;;14.6;6;;;;;;;16.22;44.68164;944.7608;;;;
2019/04/23 04:51:20;;;;;;;11.8;6;;;;;;;16.2;44.88086;944.7885;;;;
2019/04/23 04:53:45;;;;;;;12.6;5.9;;;;;;;16.15;45.0293;944.7648;;;;
2019/04/23 04:56:11;;;;;;;10.1;6;;;;;;;16.16;44.99512;944.7614;;;;
2019/04/23 04:58:36;;;;;;;11.6;6;;;;;;;16.12;45.28809;944.7886;;;;
2019/04/23 05:01:01;;;;;;;12.3;5.9;;;;;;;16.08;45.41406;944.7145;;;;
2019/04/23 05:03:27;;;;;;;12;6.5;;;;;;;15.97;45.62695;944.6746;;;;
2019/04/23 05:05:52;;;;;;;11.5;6.6;;;;;;;16.09;45.40332;944.7427;;;;
2019/04/23 05:08:20;;;;;;;12.4;6.4;;;;;;;15.68;46.65332;944.7129;;;;
2019/04/23 05:10:45;;;;;;;10.4;6.1;;;;;;;15.74;46.68262;944.7744;;;;
2019/04/23 05:13:12;;;;;;;14.2;6.2;;;;;;;15.68;46.87891;944.8217;;;;
2019/04/23 05:15:37;;;;;;;11;6.2;;;;;;;15.74;46.8252;944.7706;;;;
2019/04/23 05:18:09;;;;;;;10.8;6.2;;;;;;;15.6;47.20215;944.7561;;;;
2019/04/23 05:20:37;;;;;;;12.6;6.6;;;;;;;15.27;48.26855;944.7816;;;;
2019/04/23 05:23:11;;;;;;;11.7;6.5;;;;;;;15.63;47.18164;944.7589;;;;
2019/04/23 05:25:37;;;;;;;13.3;6.3;;;;;;;15.56;47.23438;944.8132;;;;
2019/04/23 05:28:08;;;;;;;11.2;6.5;;;;;;;15.64;47.27832;944.7946;;;;
2019/04/23 05:30:33;;;;;;;9.7;6.3;;;;;;;15.78;46.87793;944.8561;;;;
2019/04/23 05:32:58;;;;;;;11.8;6.6;;;;;;;15.86;46.88574;944.8128;;;;
2019/04/23 05:35:25;;;;;;;13.2;6.6;;;;;;;15.86;46.89746;944.7866;;;;
2019/04/23 05:37:50;;;;;;;9.8;6;;;;;;;15.88;46.89941;944.7158;;;;
2019/04/23 05:40:17;;;;;;;15.2;6.6;;;;;;;15.74;47.0625;944.7744;;;;
2019/04/23 05:42:42;;;;;;;11;6.2;;;;;;;15.8;47.09375;944.7459;;;;
2019/04/23 05:45:08;;;;;;;15.3;6.5;;;;;;;15.71;47.2373;944.7325;;;;
2019/04/23 05:47:33;;;;;;;9.2;5.9;;;;;;;15.88;47.01855;944.7944;;;;
2019/04/23 05:49:59;;;;;;;12.7;6.5;;;;;;;15.9;46.68848;944.7687;;;;
2019/04/23 05:52:25;;;;;;;11.8;6.3;;;;;;;15.81;47.33105;944.8284;;;;
2019/04/23 05:54:50;;;;;;;13.2;6.3;;;;;;;15.8;47.33105;944.8208;;;;
2019/04/23 05:57:16;;;;;;;11.9;6.6;;;;;;;15.56;48.00488;944.7252;;;;
2019/04/23 05:59:44;;;;;;;12.4;6.4;;;;;;;15.92;47.48535;944.7952;;;;
2019/04/23 06:02:10;;;;;;;17.3;6.8;;;;;;;15.94;47.16797;944.8856;;;;
2019/04/23 06:04:35;;;;;;;13.3;6.3;;;;;;;15.84;47.37012;944.8292;;;;
2019/04/23 06:07:01;;;;;;;12.5;6.2;;;;;;;15.92;46.96484;944.8855;;;;
2019/04/23 06:09:26;;;;;;;13.8;6.4;;;;;;;15.71;47.7002;944.9294;;;;
2019/04/23 06:11:51;;;;;;;11.9;6.3;;;;;;;15.6;48.08008;944.9135;;;;
2019/04/23 06:14:17;;;;;;;7.6;6.2;;;;;;;15.74;47.77441;944.9094;;;;
2019/04/23 06:16:42;;;;;;;15.7;6.7;;;;;;;15.59;48.28027;944.9302;;;;
2019/04/23 06:19:07;;;;;;;11.6;6.4;;;;;;;15.71;48.12695;944.9648;;;;
2019/04/23 06:21:33;;;;;;;10.5;6.4;;;;;;;15.63;48.39063;944.9201;;;;
2019/04/23 06:24:21;;;;;;;13;6.4;;;;;;;15.64;48.35742;944.9389;;;;
2019/04/23 06:26:57;;;;;;;12.5;6.2;;;;;;;15.65;48.15625;944.8755;;;;
2019/04/23 06:29:26;;;;;;;12.6;6.6;;;;;;;15.65;48.31055;944.8492;;;;
2019/04/23 06:31:52;;;;;;;12.1;6.7;;;;;;;15.73;48.27246;944.8755;;;;
2019/04/23 06:34:17;;;;;;;11.6;6.6;;;;;;;16.02;47.46191;944.972;;;;
2019/04/23 06:36:43;;;;;;;15.3;6.7;;;;;;;16.01;47.61426;944.9794;;;;
2019/04/23 06:39:08;;;;;;;10.2;6.8;;;;;;;16.06;47.33496;944.9897;;;;
2019/04/23 06:41:33;;;;;;;16.7;6.8;;;;;;;16.1;47.39844;944.8329;;;;
2019/04/23 06:44:04;;;;;;;13.1;6.9;;;;;;;15.92;47.75977;944.8685;;;;
2019/04/23 06:46:23;;;;;;;11.2;6.5;;;;;;;16.04;47.90234;944.8675;;;;
2019/04/23 06:48:48;;;;;;;13.7;6.4;;;;;;;16.14;47.46289;944.8622;;;;
2019/04/23 06:51:14;;;;;;;12.2;6.5;;;;;;;15.96;47.84668;944.9031;;;;
2019/04/23 06:53:39;;;;;;;14.5;6.7;;;;;;;16.25;47.47461;944.8513;;;;
2019/04/23 06:56:04;;;;;;;17.3;6.7;;;;;;;16.21;47.64746;944.856;;;;
2019/04/23 06:58:29;;;;;;;13.1;6.5;;;;;;;16.36;47.08301;944.9698;;;;
2019/04/23 07:00:54;;;;;;;16.8;6.7;;;;;;;16.79;45.97559;944.9564;;;;
2019/04/23 07:03:19;;;;;;;14.1;6.6;;;;;;;16.76;46.04395;944.9278;;;;
2019/04/23 07:05:44;;;;;;;13.3;6.9;;;;;;;16.74;45.55371;944.9816;;;;
2019/04/23 07:08:09;;;;;;;16.8;6.4;;;;;;;16.73;45.83789;944.9178;;;;
2019/04/23 07:10:34;;;;;;;15.2;6.6;;;;;;;16.87;45.41211;944.8996;;;;
2019/04/23 07:13:00;;;;;;;11.7;6.4;;;;;;;16.76;45.68652;944.937;;;;
2019/04/23 07:15:25;;;;;;;12.6;6.3;;;;;;;16.89;45.17676;945.0087;;;;
2019/04/23 07:17:50;;;;;;;12.3;6.2;;;;;;;16.84;45.23145;945.0233;;;;
2019/04/23 07:20:15;;;;;;;15.5;6.6;;;;;;;16.85;45.10156;944.9594;;;;
2019/04/23 07:22:40;;;;;;;15.9;6.1;;;;;;;17.13;44.77344;944.9796;;;;
2019/04/23 07:25:05;;;;;;;13;6.2;;;;;;;16.94;44.95703;944.965;;;;
2019/04/23 07:27:30;;;;;;;10.4;6.1;;;;;;;17.15;45.37012;944.8784;;;;
2019/04/23 07:29:57;;;;;;;12.2;6.5;;;;;;;17.31;44.4834;944.8664;;;;
2019/04/23 07:32:22;;;;;;;13.9;6.4;;;;;;;17.63;43.94238;944.9001;;;;
2019/04/23 07:34:47;;;;;;;11.7;6.5;;;;;;;17.43;44.07813;944.8572;;;;
2019/04/23 07:37:12;;;;;;;12.9;6.4;;;;;;;17.48;43.58203;944.8636;;;;
2019/04/23 07:39:42;;;;;;;16.4;6.4;;;;;;;17.53;43.29004;944.8436;;;;
2019/04/23 07:42:07;;;;;;;11.9;6.1;;;;;;;17.83;43.0332;944.7564;;;;
2019/04/23 07:44:45;;;;;;;13;6.4;;;;;;;17.69;42.85254;944.7938;;;;
2019/04/23 07:46:56;;;;;;;13.5;6.3;;;;;;;17.69;43.01953;944.8201;;;;
2019/04/23 07:49:18;;;;;;;11.8;6.2;;;;;;;17.88;42.75195;944.8155;;;;
2019/04/23 07:51:43;;;;;;;11.9;5.7;;;;;;;18.04;43.07715;944.7597;;;;
2019/04/23 07:54:08;;;;;;;75.2;9;;;;;;;18.11;43.32227;944.7925;;;;
2019/04/23 07:56:34;;;;;;;17.7;6.6;;;;;;;18.19;42.41309;944.807;;;;
2019/04/23 07:58:59;;;;;;;19.6;6.3;;;;;;;18.2;42.00781;944.8674;;;;
2019/04/23 08:01:29;;;;;;;13.4;5.9;;;;;;;18.28;42.11035;944.8042;;;;
2019/04/23 08:03:57;;;;;;;15.8;6.4;;;;;;;18.34;41.98535;944.7996;;;;
2019/04/23 08:06:22;;;;;;;18.7;6.2;;;;;;;18.34;41.7002;944.7808;;;;
2019/04/23 08:08:47;;;;;;;16.4;6.1;;;;;;;18.77;41.10645;944.7996;;;;
2019/04/23 08:11:12;;;;;;;14.9;6.1;;;;;;;18.7;41.23242;944.7836;;;;
2019/04/23 08:13:46;;;;;;;12.7;6;;;;;;;18.98;40.80371;944.7452;;;;
2019/04/23 08:16:30;;;;;;;16.8;5.9;;;;;;;18.81;41.5166;944.8017;;;;
2019/04/23 08:18:55;;;;;;;12.1;5.8;;;;;;;18.88;40.2207;944.8347;;;;
2019/04/23 08:21:35;;;;;;;15.4;6.3;;;;;;;18.91;40.00879;944.8708;;;;
2019/04/23 08:24:24;;;;;;;12.5;6;;;;;;;19.08;40.50293;944.8386;;;;
2019/04/23 08:26:50;;;;;;;37.3;6.7;;;;;;;18.81;40.95605;944.7753;;;;
2019/04/23 08:29:25;;;;;;;20.1;6.4;;;;;;;18.57;40.63477;944.7369;;;;
2019/04/23 08:31:48;;;;;;;18.6;6.1;;;;;;;18.86;40.90039;944.8739;;;;
2019/04/23 08:34:13;;;;;;;16;6.1;;;;;;;18.93;40.04688;944.8785;;;;
2019/04/23 08:36:38;;;;;;;12.8;6.4;;;;;;;19.18;39.70996;944.8906;;;;
2019/04/23 08:39:03;;;;;;;11.7;6.3;;;;;;;19.18;40.02148;944.8059;;;;
2019/04/23 08:41:28;;;;;;;12.3;6;;;;;;;19.16;40.30664;944.7056;;;;
2019/04/23 08:46:22;;;;;;;12.7;6;;;;;;;19.33;39.7002;944.7753;;;;
2019/04/23 08:48:44;;;;;;;11.9;5.8;;;;;;;19.45;39.47266;944.6841;;;;
2019/04/23 08:51:08;;;;;;;11.5;5.7;;;;;;;19.48;39.68945;944.7806;;;;
2019/04/23 08:53:34;;;;;;;20.4;6.1;;;;;;;19.69;39.61426;944.7408;;;;
2019/04/23 08:56:01;;;;;;;13.8;6;;;;;;;19.51;38.93848;944.7583;;;;
2019/04/23 08:58:31;;;;;;;12.3;5.7;;;;;;;19.7;39.55469;944.7523;;;;
2019/04/23 09:00:57;;;;;;;18.3;6.2;;;;;;;19.75;39.40332;944.6754;;;;
2019/04/23 09:03:25;;;;;;;13.7;6;;;;;;;19.89;38.79297;944.5613;;;;
2019/04/23 09:05:53;;;;;;;15.6;6;;;;;;;19.93;38.97559;944.5521;;;;
2019/04/23 09:08:18;;;;;;;21.7;6.6;;;;;;;19.9;39.27344;944.6065;;;;
2019/04/23 09:10:43;;;;;;;11.8;5.8;;;;;;;20.05;39.02246;944.568;;;;
2019/04/23 09:13:08;;;;;;;12.7;5.3;;;;;;;20.26;38.2627;944.5465;;;;
2019/04/23 09:15:33;;;;;;;15;5.4;;;;;;;20.3;38.34961;944.5734;;;;
2019/04/23 09:17:58;;;;;;;14.5;5.7;;;;;;;20.44;37.59473;944.5156;;;;
2019/04/23 09:20:23;;;;;;;16.8;6.1;;;;;;;20.54;37.9873;944.5351;;;;
2019/04/23 09:22:48;;;;;;;14.9;5.8;;;;;;;20.46;38.5791;944.4949;;;;
2019/04/23 09:25:14;;;;;;;16.7;5.5;;;;;;;20.7;38.86328;944.5244;;;;
2019/04/23 09:27:38;;;;;;;16.4;5.4;;;;;;;20.79;38.33301;944.5133;;;;
2019/04/23 09:30:04;;;;;;;12.2;5.5;;;;;;;20.6;37.74023;944.5031;;;;
2019/04/23 09:32:37;;;;;;;13.8;5.9;;;;;;;20.69;37.75879;944.5432;;;;
2019/04/23 09:39:53;;;;;;;11.2;6;;;;;;;20.91;38.05371;944.6649;;;;
2019/04/23 09:43:02;;;;;;;11.4;5.5;;;;;;;21.04;37.62207;944.5535;;;;
2019/04/23 09:44:45;;;;;;;15.5;5.7;;;;;;;21.23;37.81738;944.6222;;;;
2019/04/23 09:50:57;;;;;;;16.1;6.1;;;;;;;21.38;37.55469;944.5658;;;;
2019/04/23 09:53:22;;;;;;;16.2;6.2;;;;;;;21.36;37.48047;944.5583;;;;
2019/04/23 09:55:47;;;;;;;14.5;5.9;;;;;;;21.38;37.08496;944.5846;;;;
2019/04/23 09:58:13;;;;;;;11.9;5.7;;;;;;;21.5;36.51953;944.6245;;;;
2019/04/23 10:00:59;;;;;;;16.2;5.6;;;;;;;21.58;35.73145;944.5621;;;;
2019/04/23 10:03:21;;;;;;;17.9;5.8;;;;;;;21.47;36.32422;944.5886;;;;
2019/04/23 10:08:27;;;;;;;14.3;5.4;;;;;;;21.68;35.89648;944.551;;;;
2019/04/23 10:10:52;;;;;;;11.8;5.8;;;;;;;21.59;35.56445;944.5981;;;;
2019/04/23 10:13:17;;;;;;;14.2;5.6;;;;;;;21.94;35.45996;944.6666;;;;
2019/04/23 10:15:42;;;;;;;11.6;5.3;;;;;;;22.16;35.77832;944.6738;;;;
2019/04/23 10:18:07;;;;;;;16.6;5.3;;;;;;;22.31;35.57422;944.5769;;;;
2019/04/23 10:20:33;;;;;;;18.3;5.6;;;;;;;22.13;35.29492;944.5659;;;;
2019/04/23 10:22:58;;;;;;;12.7;5.2;;;;;;;22.28;35.01855;944.4688;;;;
2019/04/23 10:25:23;;;;;;;14.3;5;;;;;;;22.65;34.7207;944.5189;;;;
2019/04/23 10:27:50;;;;;;;13.7;5;;;;;;;22.81;36.03613;944.4958;;;;
2019/04/23 10:30:15;;;;;;;13.2;5.3;;;;;;;22.9;34.64551;944.5862;;;;
2019/04/23 10:32:40;;;;;;;15.2;5.5;;;;;;;22.74;33.87402;944.4941;;;;
2019/04/23 10:35:08;;;;;;;15.7;5.3;;;;;;;22.72;34.49805;944.4166;;;;
2019/04/23 10:37:32;;;;;;;16.3;4.8;;;;;;;22.88;33.86035;944.4765;;;;
2019/04/23 10:39:57;;;;;;;12;5.2;;;;;;;23.22;34.22363;944.4613;;;;
2019/04/23 10:42:22;;;;;;;20.8;5.1;;;;;;;23.22;33.52441;944.4253;;;;
2019/04/23 10:44:55;;;;;;;16.2;5.2;;;;;;;23.36;33.52246;944.3466;;;;
2019/04/23 10:49:58;;;;;;;13.7;5;;;;;;;23.47;32.99902;944.3611;;;;
2019/04/23 10:52:02;;;;;;;12.6;5;;;;;;;23.53;32.78711;944.3283;;;;
2019/04/23 10:54:29;;;;;;;10.5;4.5;;;;;;;23.61;32.8291;944.3069;;;;
2019/04/23 10:56:54;;;;;;;15;4.9;;;;;;;23.47;32.64941;944.2341;;;;
2019/04/23 10:59:19;;;;;;;15.4;4.5;;;;;;;23.41;33.79199;944.2172;;;;
2019/04/23 11:01:45;;;;;;;12.4;5.2;;;;;;;23.07;34.00684;944.3049;;;;
2019/04/23 11:04:09;;;;;;;11.9;4.6;;;;;;;22.87;33.73828;944.2111;;;;
2019/04/23 11:06:35;;;;;;;11.2;4.5;;;;;;;22.83;33.00098;944.1411;;;;
2019/04/23 11:09:00;;;;;;;14.7;4.8;;;;;;;22.71;33.95508;944.0792;;;;
2019/04/23 11:11:31;;;;;;;12.4;4.5;;;;;;;22.53;34.30371;944.1139;;;;
2019/04/23 11:13:50;;;;;;;16.1;4.4;;;;;;;22.69;34.19629;944.1533;;;;
2019/04/23 11:16:18;;;;;;;19.2;4.9;;;;;;;22.67;34.74707;944.204;;;;
2019/04/23 11:18:43;;;;;;;12.9;4;;;;;;;22.72;33.30566;944.2213;;;;
2019/04/23 11:21:08;;;;;;;13.3;4.2;;;;;;;22.69;34.1709;944.212;;;;
2019/04/23 11:23:33;;;;;;;13.5;3.9;;;;;;;22.89;34.16211;944.1995;;;;
2019/04/23 11:26:00;;;;;;;13.7;4.2;;;;;;;22.78;33.15332;944.1489;;;;
2019/04/23 11:28:25;;;;;;;12.9;4.2;;;;;;;22.68;33.09766;944.1248;;;;
2019/04/23 11:30:54;;;;;;;10.8;4;;;;;;;22.58;32.70508;944.1326;;;;
2019/04/23 11:33:15;;;;;;;11.2;4;;;;;;;22.67;32.85547;944.1643;;;;
2019/04/23 11:35:40;;;;;;;11.3;3.7;;;;;;;22.56;32.46289;944.2084;;;;
2019/04/23 11:38:05;;;;;;;11.6;3.7;;;;;;;22.61;32.73047;944.1799;;;;
2019/04/23 11:40:31;;;;;;;10.6;3.7;;;;;;;22.49;33.14355;944.2314;;;;
2019/04/23 11:42:56;;;;;;;13.9;3.8;;;;;;;22.53;33.41211;944.1953;;;;
2019/04/23 11:45:21;;;;;;;15.3;4.2;;;;;;;22.52;33.38672;944.2198;;;;
2019/04/23 11:47:46;;;;;;;12.6;4.1;;;;;;;22.5;33.31348;944.2864;;;;
2019/04/23 11:50:11;;;;;;;12.2;4.1;;;;;;;22.37;33.65234;944.3492;;;;
2019/04/23 11:52:37;;;;;;;12.9;4.5;;;;;;;22.42;33.77637;944.2848;;;;
2019/04/23 11:55:02;;;;;;;9.9;4;;;;;;;22.44;34.00684;944.2486;;;;
2019/04/23 11:57:27;;;;;;;12.7;4.6;;;;;;;22.4;34.30566;944.262;;;;
2019/04/23 11:59:52;;;;;;;15;4.6;;;;;;;22.48;34.41992;944.2389;;;;
2019/04/23 12:02:40;;;;;;;12;4.5;;;;;;;22.4;34.93164;944.2355;;;;
2019/04/23 12:06:34;;;;;;;11;4.5;;;;;;;22.45;34.46582;944.2183;;;;
2019/04/23 14:09:47;;;;;;;13.6;4.2;;;;;;;24.02;32.16992;943.722;;;;
2019/04/23 14:12:12;;;;;;;10;3.3;;;;;;;24.19;31.69922;943.7321;;;;
2019/04/23 14:14:38;;;;;;;11.4;3.1;;;;;;;24.12;32.58789;943.7953;;;;
2019/04/23 14:17:02;;;;;;;15.4;3.4;;;;;;;23.91;33.97461;943.7916;;;;
2019/04/23 14:19:27;;;;;;;11.8;3.5;;;;;;;23.97;34.03906;943.8292;;;;
2019/04/23 14:21:55;;;;;;;13.9;3.3;;;;;;;23.69;34.77832;943.902;;;;
2019/04/23 14:24:20;;;;;;;10.3;3.5;;;;;;;23.68;33.65527;943.8469;;;;
2019/04/23 14:26:46;;;;;;;15.6;3.6;;;;;;;23.71;33.71777;943.8354;;;;
2019/04/23 14:29:11;;;;;;;12.3;3.6;;;;;;;23.66;34.74023;943.7865;;;;
2019/04/23 14:31:36;;;;;;;17.1;3.7;;;;;;;23.65;34.18457;943.8017;;;;
2019/04/23 14:34:01;;;;;;;23.8;3.9;;;;;;;23.6;34.20508;943.8764;;;;
2019/04/23 14:36:26;;;;;;;13.5;3.9;;;;;;;23.58;34.69824;943.7834;;;;
2019/04/23 14:38:51;;;;;;;9.9;4;;;;;;;23.6;35.2793;943.7227;;;;
2019/04/23 14:41:16;;;;;;;9.5;3.3;;;;;;;23.79;34.70215;943.7209;;;;
2019/04/23 14:43:46;;;;;;;12.9;3.7;;;;;;;23.82;35.30957;943.6863;;;;
2019/04/23 14:46:27;;;;;;;11.7;3;;;;;;;23.84;33.81152;943.7391;;;;
2019/04/23 14:49:13;;;;;;;14.3;3.2;;;;;;;24.05;33.23535;943.7068;;;;
2019/04/23 14:51:29;;;;;;;10.5;3.4;;;;;;;23.82;33.91895;943.692;;;;
2019/04/23 14:53:55;;;;;;;8.9;3.3;;;;;;;23.98;34.1377;943.7813;;;;
2019/04/23 14:56:21;;;;;;;14.7;2.8;;;;;;;23.99;33.78809;943.6939;;;;
2019/04/23 14:58:46;;;;;;;11.5;3.1;;;;;;;23.93;34.27832;943.7023;;;;
2019/04/23 15:01:11;;;;;;;12.9;3;;;;;;;24.09;33.1543;943.7178;;;;
2019/04/23 15:03:36;;;;;;;9.5;3.1;;;;;;;24.01;33.94629;943.6902;;;;
2019/04/23 15:06:02;;;;;;;14.2;3.1;;;;;;;24.1;33.84375;943.7231;;;;
2019/04/23 15:08:27;;;;;;;10.8;2.9;;;;;;;23.94;33.94043;943.738;;;;
2019/04/23 15:10:52;;;;;;;10.4;2.9;;;;;;;23.97;33.87012;943.7664;;;;
2019/04/23 15:13:40;;;;;;;16.7;3.1;;;;;;;23.97;33.51953;943.7798;;;;
2019/04/23 15:16:21;;;;;;;12.2;2.8;;;;;;;23.99;33.36523;943.7699;;;;
2019/04/23 15:18:59;;;;;;;12.7;2.9;;;;;;;23.73;33.69531;943.7629;;;;
2019/04/23 15:21:12;;;;;;;8.9;2.7;;;;;;;23.92;33.39551;943.7137;;;;
2019/04/23 15:23:52;;;;;;;9.6;2.6;;;;;;;23.98;33.40039;943.7586;;;;
2019/04/23 15:26:29;;;;;;;10.4;2.8;;;;;;;23.81;33.43555;943.7547;;;;
2019/04/23 15:28:55;;;;;;;16.1;2.7;;;;;;;23.99;33.64258;943.8401;;;;
2019/04/23 15:31:28;;;;;;;11.1;2.5;;;;;;;24.06;33.80469;943.7615;;;;
2019/04/23 15:33:58;;;;;;;11.2;2.9;;;;;;;24.06;33.94922;943.7748;;;;
2019/04/23 15:36:28;;;;;;;11.4;2.5;;;;;;;23.95;33.15625;943.8387;;;;
2019/04/23 15:39:16;;;;;;;12.6;2.6;;;;;;;23.97;33.58105;943.8234;;;;
2019/04/23 15:41:45;;;;;;;10.4;2.3;;;;;;;23.67;33.84766;943.8358;;;;
2019/04/23 15:44:11;;;;;;;12.4;2.8;;;;;;;23.56;33.57422;943.962;;;;
2019/04/23 15:46:46;;;;;;;8.2;2.4;;;;;;;23.49;34.0752;943.883;;;;
2019/04/23 15:49:12;;;;;;;11;2.4;;;;;;;23.47;33.97754;943.8925;;;;
2019/04/23 15:51:37;;;;;;;6.6;2.2;;;;;;;23.55;33.63379;943.8709;;;;
2019/04/23 15:54:02;;;;;;;10.1;2.3;;;;;;;23.33;34.50977;943.954;;;;
2019/04/23 15:56:28;;;;;;;8.5;2.5;;;;;;;23.44;33.97461;943.8909;;;;
2019/04/23 15:58:53;;;;;;;12;2.2;;;;;;;23.62;33.68652;943.8894;;;;
2019/04/23 16:01:20;;;;;;;13.7;2.1;;;;;;;23.72;33.61035;943.8978;;;;
2019/04/23 16:03:45;;;;;;;15.2;1.9;;;;;;;23.61;33.44434;943.8836;;;;
2019/04/23 16:06:10;;;;;;;8.3;2;;;;;;;23.55;33.48926;943.9564;;;;
2019/04/23 16:08:36;;;;;;;15.5;1.7;;;;;;;23.52;33.31738;943.9453;;;;
2019/04/23 16:13:13;;;;;;;12.6;2.1;;;;;;;23.68;33.37695;943.8868;;;;
2019/04/23 16:15:39;;;;;;;8.7;1.9;;;;;;;23.84;33.77539;943.8322;;;;
2019/04/23 16:20:31;;;;;;;7.9;1.6;;;;;;;23.53;32.97949;943.8805;;;;
2019/04/23 16:22:55;;;;;;;14.5;1.8;;;;;;;23.36;32.66602;943.9064;;;;
2019/04/23 16:25:20;;;;;;;11.2;1.7;;;;;;;23.18;32.68848;943.9722;;;;
2019/04/23 16:27:47;;;;;;;13.5;1.6;;;;;;;23.14;33.13184;943.9763;;;;
2019/04/23 16:30:12;;;;;;;8.8;1.6;;;;;;;23.11;33.05664;943.9197;;;;
2019/04/23 16:32:37;;;;;;;6.8;1.7;;;;;;;23.42;32.99609;943.9933;;;;
2019/04/23 16:35:07;;;;;;;11.6;1.6;;;;;;;23.21;33.18555;943.9947;;;;
2019/04/23 16:37:27;;;;;;;7.5;1.6;;;;;;;23.25;32.94727;944.0097;;;;
2019/04/23 16:39:52;;;;;;;9.5;1.7;;;;;;;23.28;33.23926;943.998;;;;
2019/04/23 16:42:17;;;;;;;12.5;1.7;;;;;;;23.07;33.64453;944.0052;;;;
2019/04/23 16:44:43;;;;;;;7.4;1.7;;;;;;;23.19;33.63086;943.991;;;;
2019/04/23 16:47:08;;;;;;;9.4;1.6;;;;;;;23.1;33.94922;943.8552;;;;
2019/04/23 16:49:34;;;;;;;9.5;1.6;;;;;;;23.08;33.34473;943.8286;;;;
2019/04/23 16:51:59;;;;;;;8.5;1.7;;;;;;;23.11;33.16602;943.8438;;;;
2019/04/23 16:54:26;;;;;;;11.3;1.6;;;;;;;22.91;33.46484;943.8678;;;;
2019/04/23 16:56:54;;;;;;;6.2;1.6;;;;;;;23.07;33.62109;943.8175;;;;
2019/04/23 16:59:35;;;;;;;7.4;1.6;;;;;;;22.92;33.47754;943.9285;;;;
2019/04/23 17:02:00;;;;;;;6.6;1.8;;;;;;;22.73;34.23438;943.8557;;;;
2019/04/23 17:04:25;;;;;;;7.8;1.7;;;;;;;22.59;34.59668;943.8482;;;;
2019/04/23 17:06:51;;;;;;;9.8;1.9;;;;;;;22.53;34.66504;943.841;;;;
2019/04/23 17:09:16;;;;;;;11.9;1.9;;;;;;;22.56;35.07617;943.8597;;;;
2019/04/23 17:11:41;;;;;;;7.9;2.1;;;;;;;22.39;35.82129;943.8019;;;;
2019/04/23 17:14:06;;;;;;;8.4;2.2;;;;;;;22.55;35.31641;943.8806;;;;
2019/04/23 17:16:31;;;;;;;8;2.3;;;;;;;22.42;35.70313;943.8964;;;;
2019/04/23 17:18:56;;;;;;;8.9;2.6;;;;;;;22.39;35.96582;943.9118;;;;
2019/04/23 17:21:45;;;;;;;12.5;2.7;;;;;;;22.18;36.42969;943.9521;;;;
2019/04/23 17:24:10;;;;;;;9.5;2.9;;;;;;;22.14;36.71582;943.9447;;;;
2019/04/23 17:26:35;;;;;;;10.7;2.8;;;;;;;22.11;36.94238;943.9959;;;;
2019/04/23 17:29:00;;;;;;;10.5;2.8;;;;;;;22.11;37.30371;943.9827;;;;
2019/04/23 17:31:35;;;;;;;12;3.2;;;;;;;22.29;36.77637;943.929;;;;
2019/04/23 17:33:51;;;;;;;13.1;5.1;;;;;;;22.02;37.2959;943.9203;;;;
2019/04/23 17:36:19;;;;;;;13.5;4.3;;;;;;;21.96;37.4834;944.002;;;;
2019/04/23 17:38:48;;;;;;;7.9;3.1;;;;;;;21.74;38.00488;944.0361;;;;
2019/04/23 17:41:22;;;;;;;9.3;3.4;;;;;;;21.7;38.07422;944.0778;;;;
2019/04/23 17:43:31;;;;;;;13.9;3.1;;;;;;;21.55;38.24121;944.1271;;;;
2019/04/23 17:45:56;;;;;;;13.8;3.3;;;;;;;21.54;38.43262;944.1686;;;;
2019/04/23 17:48:22;;;;;;;8.8;3.2;;;;;;;21.64;38.2373;944.2498;;;;
2019/04/23 17:50:46;;;;;;;16.3;3.3;;;;;;;21.34;38.94434;944.2293;;;;
2019/04/23 17:53:12;;;;;;;9.6;3.2;;;;;;;21.52;38.69629;944.2313;;;;
2019/04/23 17:55:37;;;;;;;16.5;3.4;;;;;;;21.34;39.07715;944.2498;;;;
2019/04/23 17:58:03;;;;;;;10.4;3.2;;;;;;;21.12;39.50195;944.3044;;;;
2019/04/23 18:00:42;;;;;;;9.3;3.7;;;;;;;21.02;39.79199;944.2587;;;;
2019/04/23 18:02:53;;;;;;;8.6;3.1;;;;;;;21.15;39.65918;944.2461;;;;
2019/04/23 18:05:18;;;;;;;11.4;3.7;;;;;;;21.11;39.99219;944.2551;;;;
2019/04/23 18:07:43;;;;;;;7.3;3.7;;;;;;;21.16;39.81738;944.2989;;;;
2019/04/23 18:10:10;;;;;;;9;3.4;;;;;;;20.96;40.14648;944.3964;;;;
2019/04/23 18:12:41;;;;;;;11.4;3.7;;;;;;;20.9;40.35742;944.4341;;;;
2019/04/23 18:15:13;;;;;;;10.1;3.3;;;;;;;20.86;40.65332;944.4132;;;;
2019/04/23 18:17:38;;;;;;;15.3;3.6;;;;;;;20.88;40.51172;944.3945;;;;
2019/04/23 18:20:25;;;;;;;10.3;3.7;;;;;;;20.85;40.68945;944.415;;;;
2019/04/23 18:22:31;;;;;;;8;3.4;;;;;;;20.56;41.34668;944.4292;;;;
2019/04/23 18:24:58;;;;;;;12.1;3.6;;;;;;;20.66;41.13965;944.4258;;;;
2019/04/23 18:27:19;;;;;;;8.7;3.8;;;;;;;20.8;40.80469;944.4283;;;;
2019/04/23 18:29:55;;;;;;;10.3;3.7;;;;;;;20.78;40.96973;944.4639;;;;
2019/04/23 18:32:25;;;;;;;13.1;3.9;;;;;;;20.68;41.20215;944.4619;;;;
2019/04/23 18:34:35;;;;;;;17.3;4.2;;;;;;;20.49;41.61523;944.4459;;;;
2019/04/23 18:37:02;;;;;;;6.9;3.7;;;;;;;20.71;41.21582;944.5204;;;;
2019/04/23 18:39:27;;;;;;;14;4;;;;;;;20.57;41.43066;944.5898;;;;
2019/04/23 18:41:53;;;;;;;15.2;4.1;;;;;;;20.17;42.20898;944.5497;;;;
2019/04/23 18:44:18;;;;;;;8.5;3.5;;;;;;;20.23;42.39355;944.5369;;;;
2019/04/23 18:46:57;;;;;;;19.2;3.9;;;;;;;20.3;42.06445;944.5848;;;;
2019/04/23 18:49:22;;;;;;;15;3.7;;;;;;;20.27;42.11035;944.6108;;;;
2019/04/23 18:51:48;;;;;;;10.3;3.9;;;;;;;20.49;41.90332;944.6498;;;;
2019/04/23 18:54:13;;;;;;;14.6;3.8;;;;;;;20.47;41.69727;944.699;;;;
2019/04/23 18:56:38;;;;;;;7.5;3.5;;;;;;;20.3;42.18457;944.7528;;;;
2019/04/23 18:59:03;;;;;;;15.4;3.6;;;;;;;20.11;42.40625;944.6834;;;;
2019/04/23 19:02:36;;;;;;;8.4;3.4;;;;;;;19.97;42.9082;944.7542;;;;
2019/04/23 19:03:58;;;;;;;11.1;3.7;;;;;;;20.1;42.56055;944.8021;;;;
2019/04/23 19:06:28;;;;;;;11.2;3.7;;;;;;;20.01;42.7793;944.8055;;;;
2019/04/23 19:09:10;;;;;;;8.4;3.8;;;;;;;20.09;42.63184;944.838;;;;
2019/04/23 19:12:31;;;;;;;7.7;3.6;;;;;;;19.97;42.9082;944.824;;;;
2019/04/23 19:14:09;;;;;;;8.2;3.9;;;;;;;19.71;43.60059;944.9222;;;;
2019/04/23 19:16:38;;;;;;;9.9;4;;;;;;;19.8;43.4541;944.9963;;;;
2019/04/23 19:19:04;;;;;;;11.3;3.8;;;;;;;19.85;43.39746;944.8759;;;;
2019/04/23 19:21:29;;;;;;;12.6;4.1;;;;;;;19.87;43.32813;944.8873;;;;
2019/04/23 19:23:54;;;;;;;9.8;4.1;;;;;;;19.83;43.38477;944.8965;;;;
2019/04/23 19:26:19;;;;;;;9.8;3.9;;;;;;;19.85;43.42285;944.9855;;;;
2019/04/23 19:28:44;;;;;;;10.7;4.3;;;;;;;19.76;43.75977;944.9638;;;;
2019/04/23 19:31:17;;;;;;;13.7;4.2;;;;;;;19.89;43.36621;944.9367;;;;
2019/04/23 19:33:58;;;;;;;12.5;4.6;;;;;;;19.71;43.81641;944.9163;;;;
2019/04/23 19:36:44;;;;;;;11.6;4.6;;;;;;;19.82;43.59961;944.9702;;;;
2019/04/23 19:39:10;;;;;;;13.4;4.7;;;;;;;19.84;43.68555;944.991;;;;
2019/04/23 19:41:35;;;;;;;11.5;4.9;;;;;;;19.77;43.74902;944.8998;;;;
2019/04/23 19:44:00;;;;;;;11.5;4.5;;;;;;;19.67;44.23047;944.9709;;;;
2019/04/23 19:46:28;;;;;;;10.5;4.5;;;;;;;19.52;44.52637;944.8809;;;;
2019/04/23 19:48:53;;;;;;;10;4.8;;;;;;;19.31;44.91211;944.9295;;;;
2019/04/23 19:51:23;;;;;;;13.9;4.9;;;;;;;19.59;44.31934;945.0117;;;;
2019/04/23 19:53:48;;;;;;;7.2;4.5;;;;;;;19.52;44.44238;944.9507;;;;
2019/04/23 19:56:13;;;;;;;12.9;5;;;;;;;19.48;44.59473;945.0032;;;;
2019/04/23 19:58:49;;;;;;;12.7;4.9;;;;;;;19.42;44.81543;944.995;;;;
2019/04/23 20:01:15;;;;;;;7.1;4.6;;;;;;;19.39;44.93164;944.9378;;;;
2019/04/23 20:03:40;;;;;;;10.9;4.9;;;;;;;19.23;45.21387;944.9267;;;;
2019/04/23 20:06:09;;;;;;;9.7;4.4;;;;;;;19.36;44.88086;944.9978;;;;
2019/04/23 20:08:34;;;;;;;8.3;4.8;;;;;;;19.27;45.09961;945.0798;;;;
2019/04/23 20:10:59;;;;;;;12.4;5;;;;;;;19.44;44.60156;945.0838;;;;
2019/04/23 20:13:24;;;;;;;10.6;5.3;;;;;;;19.37;44.89355;945.1187;;;;
2019/04/23 20:15:49;;;;;;;10.2;4.9;;;;;;;19.27;45.06348;945.1892;;;;
2019/04/23 20:18:16;;;;;;;10.3;4.5;;;;;;;19.26;45.07422;945.2795;;;;
2019/04/23 20:20:41;;;;;;;6.4;4.5;;;;;;;19.52;44.41895;945.2411;;;;
2019/04/23 20:23:07;;;;;;;9.7;4.6;;;;;;;19.28;45.1123;945.2194;;;;
2019/04/23 20:25:32;;;;;;;13;4.7;;;;;;;19.32;44.9375;945.1822;;;;
2019/04/23 20:28:02;;;;;;;8.2;4.6;;;;;;;19.42;44.69629;945.2683;;;;
2019/04/23 20:30:43;;;;;;;11.9;4.7;;;;;;;19.11;45.50098;945.2725;;;;
2019/04/23 20:33:13;;;;;;;10;4.8;;;;;;;19.22;45.19043;945.3281;;;;
2019/04/23 20:35:12;;;;;;;9.1;4.8;;;;;;;19.08;45.41406;945.3416;;;;
2019/04/23 20:37:37;;;;;;;9.2;4.9;;;;;;;18.93;45.91211;945.3192;;;;